createdAt,value
2019-03-22T00:00:11.171Z,49.10
2019-03-22T00:02:39.480Z,51.05
2019-03-22T00:05:07.940Z,56.77
2019-03-22T00:07:36.332Z,48.13
2019-03-22T00:10:05.914Z,48.85
2019-03-22T00:12:34.321Z,50.50
2019-03-22T00:15:03.515Z,52.00
2019-03-22T00:17:31.935Z,50.03
2019-03-22T00:20:00.397Z,51.48
2019-03-22T00:22:28.801Z,49.95
2019-03-22T00:24:57.367Z,51.63
2019-03-22T00:27:26.089Z,53.48
2019-03-22T00:29:54.766Z,54.60
2019-03-22T00:32:23.384Z,56.40
2019-03-22T00:34:51.850Z,51.30
2019-03-22T00:37:20.264Z,49.27
2019-03-22T00:39:48.564Z,57.53
2019-03-22T00:42:17.012Z,55.10
2019-03-22T00:44:45.904Z,47.27
2019-03-22T00:47:14.341Z,49.53
2019-03-22T00:49:42.645Z,45.90
2019-03-22T00:52:11.144Z,49.45
2019-03-22T00:54:39.590Z,46.50
2019-03-22T00:57:08.328Z,47.88
2019-03-22T00:59:36.965Z,46.30
2019-03-22T01:02:05.305Z,46.58
2019-03-22T01:04:33.776Z,49.73
2019-03-22T01:07:02.061Z,48.17
2019-03-22T01:09:30.400Z,49.60
2019-03-22T01:11:59.359Z,48.33
2019-03-22T01:14:27.913Z,49.15
2019-03-22T01:16:56.532Z,50.85
2019-03-22T01:19:25.030Z,44.03
2019-03-22T01:21:53.946Z,47.78
2019-03-22T01:24:22.718Z,49.05
2019-03-22T01:26:51.217Z,47.90
2019-03-22T01:29:19.803Z,45.28
2019-03-22T01:31:48.454Z,44.53
2019-03-22T01:34:17.178Z,45.15
2019-03-22T01:36:45.818Z,41.63
2019-03-22T01:39:18.503Z,47.08
2019-03-22T01:41:47.072Z,49.05
2019-03-22T01:44:15.586Z,51.55
2019-03-22T01:46:45.174Z,40.90
2019-03-22T01:49:13.817Z,45.70
2019-03-22T01:51:42.643Z,46.68
2019-03-22T01:54:11.194Z,47.90
2019-03-22T01:56:39.593Z,45.85
2019-03-22T01:59:08.182Z,44.03
2019-03-22T02:01:36.903Z,43.60
2019-03-22T02:04:05.210Z,41.73
2019-03-22T02:06:33.483Z,42.00
2019-03-22T02:09:01.795Z,44.00
2019-03-22T02:11:30.220Z,42.10
2019-03-22T02:13:58.538Z,40.28
2019-03-22T02:16:34.177Z,42.00
2019-03-22T02:19:03.271Z,41.65
2019-03-22T02:21:31.997Z,39.30
2019-03-22T02:24:00.464Z,37.63
2019-03-22T02:26:28.759Z,39.20
2019-03-22T02:28:57.134Z,38.02
2019-03-22T02:31:25.664Z,35.43
2019-03-22T02:33:54.117Z,41.60
2019-03-22T02:36:22.576Z,39.58
2019-03-22T02:38:50.967Z,37.73
2019-03-22T02:41:21.214Z,43.20
2019-03-22T02:43:49.760Z,39.73
2019-03-22T02:46:18.168Z,37.55
2019-03-22T02:48:46.578Z,35.73
2019-03-22T02:51:15.057Z,36.77
2019-03-22T02:53:43.503Z,42.45
2019-03-22T02:56:11.932Z,37.98
2019-03-22T02:58:40.400Z,34.18
2019-03-22T03:01:08.882Z,36.30
2019-03-22T03:03:37.446Z,36.00
2019-03-22T03:06:05.917Z,41.23
2019-03-22T03:08:34.415Z,32.65
2019-03-22T03:11:02.840Z,42.70
2019-03-22T03:13:31.204Z,38.13
2019-03-22T03:15:59.563Z,37.60
2019-03-22T03:18:28.111Z,36.42
2019-03-22T03:20:56.605Z,39.90
2019-03-22T03:23:24.967Z,39.65
2019-03-22T03:25:53.431Z,35.03
2019-03-22T03:28:36.006Z,37.28
2019-03-22T03:30:51.986Z,33.88
2019-03-22T03:33:20.347Z,30.92
2019-03-22T03:35:52.605Z,39.92
2019-03-22T03:38:20.948Z,33.80
2019-03-22T03:40:49.332Z,37.08
2019-03-22T03:43:17.628Z,30.55
2019-03-22T03:45:46.047Z,39.30
2019-03-22T03:48:14.655Z,33.45
2019-03-22T03:50:42.960Z,32.05
2019-03-22T03:53:11.426Z,37.78
2019-03-22T03:55:42.814Z,35.48
2019-03-22T03:58:11.250Z,32.08
2019-03-22T04:00:40.068Z,33.92
2019-03-22T04:03:08.762Z,30.75
2019-03-22T04:05:37.132Z,35.40
2019-03-22T04:08:05.449Z,36.38
2019-03-22T04:10:33.882Z,33.30
2019-03-22T04:13:04.079Z,34.85
2019-03-22T04:15:32.834Z,38.55
2019-03-22T04:18:02.916Z,34.25
2019-03-22T04:20:34.246Z,37.00
2019-03-22T04:23:02.606Z,32.48
2019-03-22T04:25:42.743Z,31.68
2019-03-22T04:28:10.815Z,32.88
2019-03-22T04:30:39.267Z,31.82
2019-03-22T04:33:07.623Z,36.42
2019-03-22T04:35:35.901Z,38.10
2019-03-22T04:38:04.784Z,37.60
2019-03-22T04:40:33.157Z,36.77
2019-03-22T04:43:01.684Z,38.58
2019-03-22T04:45:30.929Z,38.78
2019-03-22T04:48:05.535Z,38.70
2019-03-22T04:50:35.489Z,38.25
2019-03-22T04:53:21.869Z,34.53
2019-03-22T04:55:53.753Z,36.42
2019-03-22T04:58:22.142Z,38.83
2019-03-22T05:00:50.517Z,35.17
2019-03-22T05:03:22.503Z,36.05
2019-03-22T05:05:50.808Z,35.60
2019-03-22T05:08:19.113Z,33.33
2019-03-22T05:10:47.481Z,34.92
2019-03-22T05:13:15.946Z,42.30
2019-03-22T05:15:44.482Z,31.35
2019-03-22T05:18:13.134Z,38.40
2019-03-22T05:20:42.071Z,32.75
2019-03-22T05:23:10.454Z,35.90
2019-03-22T05:25:38.797Z,38.35
2019-03-22T05:28:07.626Z,39.00
2019-03-22T05:31:02.209Z,40.00
2019-03-22T05:33:30.588Z,35.00
2019-03-22T05:35:58.949Z,40.08
2019-03-22T05:38:28.943Z,40.50
2019-03-22T05:43:25.188Z,38.73
2019-03-22T05:45:53.873Z,33.08
2019-03-22T05:48:22.265Z,33.45
2019-03-22T05:50:50.690Z,37.98
2019-03-22T05:53:19.230Z,34.38
2019-03-22T05:55:47.604Z,36.55
2019-03-22T05:58:15.995Z,35.55
2019-03-22T06:00:44.298Z,39.95
2019-03-22T06:03:12.682Z,39.83
2019-03-22T06:05:41.057Z,41.05
2019-03-22T06:08:09.546Z,48.45
2019-03-22T06:10:37.915Z,38.13
2019-03-22T06:13:06.328Z,33.23
2019-03-22T06:15:34.891Z,36.35
2019-03-22T06:18:03.396Z,36.23
2019-03-22T06:20:32.247Z,45.90
2019-03-22T06:23:00.598Z,38.50
2019-03-22T06:25:28.949Z,30.48
2019-03-22T06:27:57.493Z,39.20
2019-03-22T06:30:26.761Z,38.88
2019-03-22T06:32:55.683Z,36.20
2019-03-22T06:35:24.371Z,28.83
2019-03-22T06:37:52.719Z,34.75
2019-03-22T06:40:21.213Z,32.58
2019-03-22T06:42:49.522Z,30.77
2019-03-22T06:45:18.924Z,29.52
2019-03-22T06:47:47.314Z,31.90
2019-03-22T06:50:15.837Z,31.05
2019-03-22T06:52:44.366Z,32.63
2019-03-22T06:55:12.739Z,28.00
2019-03-22T06:57:43.398Z,27.48
2019-03-22T07:00:13.088Z,29.07
2019-03-22T07:02:41.802Z,27.32
2019-03-22T07:05:13.721Z,28.62
2019-03-22T07:07:42.438Z,30.05
2019-03-22T07:10:11.430Z,35.45
2019-03-22T07:12:40.282Z,30.85
2019-03-22T07:15:08.730Z,34.70
2019-03-22T07:17:37.243Z,40.63
2019-03-22T07:20:08.856Z,35.80
2019-03-22T07:22:37.602Z,36.53
2019-03-22T07:25:06.799Z,34.92
2019-03-22T07:27:37.586Z,32.80
2019-03-22T07:30:18.814Z,34.13
2019-03-22T07:32:44.669Z,35.35
2019-03-22T07:35:13.395Z,32.23
2019-03-22T07:37:41.715Z,35.63
2019-03-22T07:40:11.649Z,40.40
2019-03-22T07:42:40.270Z,37.67
2019-03-22T07:45:09.784Z,36.40
2019-03-22T07:47:38.091Z,41.10
2019-03-22T07:50:12.972Z,36.25
2019-03-22T07:52:41.482Z,36.03
2019-03-22T07:55:09.906Z,40.12
2019-03-22T07:57:40.998Z,41.73
2019-03-22T08:00:13.033Z,34.55
2019-03-22T08:02:41.809Z,32.55
2019-03-22T08:05:10.351Z,37.88
2019-03-22T08:07:38.836Z,41.65
2019-03-22T08:10:08.382Z,35.43
2019-03-22T08:12:37.019Z,37.93
2019-03-22T08:15:08.226Z,40.03
2019-03-22T08:17:36.097Z,46.33
2019-03-22T08:20:06.365Z,39.55
2019-03-22T08:22:35.306Z,43.10
2019-03-22T08:25:03.895Z,42.17
2019-03-22T08:27:32.244Z,43.33
2019-03-22T08:30:00.586Z,41.70
2019-03-22T08:32:28.888Z,48.08
2019-03-22T08:34:57.204Z,41.50
2019-03-22T08:37:25.580Z,46.25
2019-03-22T08:39:55.937Z,41.85
2019-03-22T08:42:24.181Z,40.03
2019-03-22T08:44:52.936Z,43.10
2019-03-22T08:47:33.165Z,44.90
2019-03-22T08:49:51.778Z,41.53
2019-03-22T08:52:20.465Z,47.20
2019-03-22T08:54:48.904Z,44.33
2019-03-22T08:57:17.316Z,42.05
2019-03-22T08:59:46.762Z,44.63
2019-03-22T09:02:15.240Z,51.40
2019-03-22T09:04:43.820Z,44.98
2019-03-22T09:07:12.707Z,45.67
2019-03-22T09:09:41.990Z,46.15
2019-03-22T09:12:10.726Z,48.50
2019-03-22T09:14:39.316Z,50.12
2019-03-22T09:17:08.022Z,47.88
2019-03-22T09:19:36.386Z,46.48
2019-03-22T09:22:05.281Z,47.05
2019-03-22T09:24:39.434Z,51.68
2019-03-22T09:27:06.621Z,56.25
2019-03-22T09:29:35.134Z,57.90
2019-03-22T09:32:03.554Z,60.25
2019-03-22T09:34:33.973Z,67.27
2019-03-22T09:39:29.714Z,62.40
2019-03-22T09:41:58.266Z,66.72
2019-03-22T09:44:28.194Z,67.25
2019-03-22T09:46:56.968Z,63.80
2019-03-22T09:49:25.349Z,66.90
2019-03-22T09:51:55.216Z,69.85
2019-03-22T09:56:51.658Z,71.47
2019-03-22T09:59:20.045Z,77.05
2019-03-22T10:01:49.252Z,89.85
2019-03-22T10:04:18.170Z,85.00
2019-03-22T10:06:46.818Z,94.97
2019-03-22T10:09:15.412Z,88.95
2019-03-22T10:11:43.870Z,94.60
2019-03-22T10:14:12.385Z,94.35
2019-03-22T10:16:40.772Z,94.32
2019-03-22T10:19:09.139Z,92.78
2019-03-22T10:21:37.891Z,101.55
2019-03-22T10:24:06.391Z,99.25
2019-03-22T10:26:34.875Z,98.42
2019-03-22T10:29:03.618Z,98.15
2019-03-22T10:34:02.878Z,113.10
2019-03-22T10:36:31.401Z,114.77
2019-03-22T10:38:59.783Z,105.30
2019-03-22T10:41:28.279Z,102.40
2019-03-22T10:43:56.628Z,104.87
2019-03-22T10:46:25.095Z,100.75
2019-03-22T10:48:54.156Z,108.25
2019-03-22T10:51:22.827Z,107.35
2019-03-22T10:53:52.212Z,113.37
2019-03-22T10:56:21.017Z,111.88
2019-03-22T10:58:49.575Z,105.60
2019-03-22T11:01:17.855Z,109.10
2019-03-22T11:03:47.113Z,107.70
2019-03-22T11:06:25.517Z,111.62
2019-03-22T11:11:13.984Z,105.35
2019-03-22T11:13:42.494Z,102.12
2019-03-22T11:16:10.848Z,106.92
2019-03-22T11:18:39.285Z,100.10
2019-03-22T11:21:07.872Z,90.83
2019-03-22T11:23:36.330Z,104.55
2019-03-22T11:26:05.057Z,97.37
2019-03-22T11:28:33.522Z,118.93
2019-03-22T11:31:05.021Z,103.62
2019-03-22T11:35:59.445Z,93.00
2019-03-22T11:38:27.807Z,109.15
2019-03-22T11:40:56.328Z,93.58
2019-03-22T11:43:26.422Z,101.55
2019-03-22T11:48:22.624Z,70.85
2019-03-22T11:50:50.915Z,76.77
2019-03-22T11:53:19.245Z,86.42
2019-03-22T11:55:47.551Z,85.00
2019-03-22T11:58:15.927Z,81.30
2019-03-22T12:00:44.372Z,82.12
2019-03-22T12:03:12.769Z,73.10
2019-03-22T12:05:41.957Z,78.20
2019-03-22T12:08:10.284Z,92.90
2019-03-22T12:10:38.629Z,83.50
2019-03-22T12:13:07.352Z,80.03
2019-03-22T12:15:35.630Z,90.57
2019-03-22T12:18:04.519Z,84.67
2019-03-22T12:20:33.085Z,84.70
2019-03-22T12:23:01.525Z,87.00
2019-03-22T12:25:29.937Z,89.85
2019-03-22T12:27:58.451Z,91.30
2019-03-22T12:30:26.882Z,79.80
2019-03-22T12:32:56.001Z,72.87
2019-03-22T12:35:26.038Z,85.53
2019-03-22T12:40:23.258Z,84.85
2019-03-22T12:42:51.824Z,82.20
2019-03-22T12:45:27.524Z,85.53
2019-03-22T12:47:56.088Z,87.85
2019-03-22T12:50:24.461Z,83.58
2019-03-22T12:52:52.844Z,83.22
2019-03-22T12:55:21.363Z,82.15
2019-03-22T12:57:49.752Z,89.10
2019-03-22T13:00:21.335Z,83.33
2019-03-22T13:02:50.016Z,81.85
2019-03-22T13:05:19.011Z,88.03
2019-03-22T13:07:48.313Z,86.92
2019-03-22T13:10:19.940Z,80.97
2019-03-22T13:12:48.296Z,80.07
2019-03-22T13:15:16.618Z,78.62
2019-03-22T13:17:45.179Z,79.77
2019-03-22T13:20:15.729Z,80.90
2019-03-22T13:22:44.629Z,87.27
2019-03-22T13:25:14.353Z,91.28
2019-03-22T13:27:42.772Z,87.65
2019-03-22T13:30:35.063Z,84.77
2019-03-22T13:33:03.732Z,86.97
2019-03-22T13:35:32.054Z,87.08
2019-03-22T13:38:00.411Z,82.45
2019-03-22T13:40:28.995Z,78.75
2019-03-22T13:42:57.394Z,84.10
2019-03-22T13:45:25.945Z,79.03
2019-03-22T13:47:54.665Z,79.47
2019-03-22T13:50:23.167Z,73.12
2019-03-22T13:52:51.680Z,79.75
2019-03-22T13:55:20.199Z,77.37
2019-03-22T13:57:48.467Z,73.95
2019-03-22T14:00:17.650Z,85.95
2019-03-22T14:02:46.173Z,75.00
2019-03-22T14:05:14.717Z,74.82
2019-03-22T14:07:43.449Z,75.50
2019-03-22T14:10:33.995Z,74.72
2019-03-22T14:13:03.488Z,78.78
2019-03-22T14:15:32.086Z,74.58
2019-03-22T14:18:00.739Z,81.82
2019-03-22T14:20:29.664Z,80.87
2019-03-22T14:23:00.128Z,76.00
2019-03-22T14:25:28.540Z,75.00
2019-03-22T14:27:56.915Z,77.87
2019-03-22T14:30:25.243Z,76.70
2019-03-22T14:32:54.210Z,73.47
2019-03-22T14:35:22.567Z,74.90
2019-03-22T14:37:50.865Z,76.55
2019-03-22T14:40:21.728Z,75.15
2019-03-22T14:42:50.954Z,73.37
2019-03-22T14:45:19.259Z,72.70
2019-03-22T14:47:47.890Z,74.97
2019-03-22T14:50:16.428Z,75.87
2019-03-22T14:52:46.214Z,77.75
2019-03-22T14:55:14.632Z,70.92
2019-03-22T14:57:48.696Z,76.87
2019-03-22T15:02:41.592Z,78.75
2019-03-22T15:05:10.203Z,75.52
2019-03-22T15:07:38.506Z,71.05
2019-03-22T15:10:11.897Z,77.58
2019-03-22T15:12:41.312Z,74.90
2019-03-22T15:15:24.991Z,71.72
2019-03-22T15:18:07.320Z,73.00
2019-03-22T15:20:54.215Z,71.82
2019-03-22T15:23:40.654Z,96.87
2019-03-22T15:26:10.927Z,81.17
2019-03-22T15:28:41.077Z,217.07
2019-03-22T15:33:57.036Z,88.10
2019-03-22T15:36:43.549Z,82.22
2019-03-22T15:39:25.811Z,74.80
2019-03-22T15:41:54.526Z,80.00
2019-03-22T15:46:51.579Z,131.07
2019-03-22T15:49:20.009Z,424.02
2019-03-22T15:51:48.892Z,188.03
2019-03-22T15:54:17.428Z,171.22
2019-03-22T15:56:46.200Z,213.57
2019-03-22T15:59:14.571Z,75.05
2019-03-22T16:01:42.939Z,491.60
2019-03-22T16:04:11.439Z,247.98
2019-03-22T16:06:40.487Z,142.62
2019-03-22T16:09:09.006Z,121.17
2019-03-22T16:11:37.589Z,171.15
2019-03-22T16:14:07.052Z,96.10
2019-03-22T16:16:35.952Z,95.15
2019-03-22T16:19:04.812Z,154.03
2019-03-22T16:21:33.213Z,150.90
2019-03-22T16:24:02.046Z,94.22
2019-03-22T16:26:30.577Z,94.67
2019-03-22T16:28:59.175Z,108.97
2019-03-22T16:31:27.820Z,172.70
2019-03-22T16:33:57.826Z,121.80
2019-03-22T16:36:29.281Z,161.10
2019-03-22T16:38:57.908Z,104.50
2019-03-22T16:41:26.468Z,95.32
2019-03-22T16:43:55.067Z,83.95
2019-03-22T16:46:23.673Z,86.95
2019-03-22T16:48:52.175Z,85.75
2019-03-22T16:51:20.517Z,76.17
2019-03-22T16:53:49.227Z,74.15
2019-03-22T16:56:17.645Z,79.80
2019-03-22T16:58:46.016Z,74.15
2019-03-22T17:01:14.339Z,77.42
2019-03-22T17:03:42.691Z,95.25
2019-03-22T17:06:11.038Z,78.95
2019-03-22T17:08:39.586Z,77.35
2019-03-22T17:11:08.032Z,82.50
2019-03-22T17:13:36.365Z,90.00
2019-03-22T17:16:05.609Z,85.38
2019-03-22T17:18:34.133Z,105.70
2019-03-22T17:21:02.642Z,99.85
2019-03-22T17:23:31.153Z,85.53
2019-03-22T17:25:59.634Z,83.85
2019-03-22T17:28:27.984Z,87.97
2019-03-22T17:30:56.566Z,95.17
2019-03-22T17:33:25.036Z,86.50
2019-03-22T17:35:53.722Z,84.10
2019-03-22T17:38:22.098Z,92.60
2019-03-22T17:40:51.201Z,84.97
2019-03-22T17:43:22.774Z,86.70
2019-03-22T17:45:51.470Z,99.28
2019-03-22T17:48:20.205Z,94.03
2019-03-22T17:50:48.594Z,94.40
2019-03-22T17:53:16.926Z,106.32
2019-03-22T17:55:45.602Z,93.70
2019-03-22T17:58:14.093Z,96.67
2019-03-22T18:00:43.021Z,94.42
2019-03-22T18:03:11.612Z,101.02
2019-03-22T18:05:40.327Z,100.58
2019-03-22T18:08:11.657Z,94.87
2019-03-22T18:10:40.056Z,100.15
2019-03-22T18:13:08.594Z,106.63
2019-03-22T18:15:37.000Z,101.45
2019-03-22T18:18:06.904Z,110.22
2019-03-22T18:20:35.361Z,119.87
2019-03-22T18:23:03.835Z,110.28
2019-03-22T18:25:32.305Z,116.97
2019-03-22T18:28:00.754Z,116.62
2019-03-22T18:30:29.116Z,117.40
2019-03-22T18:32:57.868Z,108.95
2019-03-22T18:35:26.740Z,116.03
2019-03-22T18:37:55.870Z,116.95
2019-03-22T18:40:24.679Z,126.93
2019-03-22T18:42:52.955Z,114.70
2019-03-22T18:45:21.454Z,131.00
2019-03-22T18:47:49.853Z,133.87
2019-03-22T18:50:18.205Z,124.55
2019-03-22T18:52:46.633Z,132.87
2019-03-22T18:55:14.996Z,137.15
2019-03-22T18:57:43.340Z,142.37
2019-03-22T19:00:15.844Z,141.92
2019-03-22T19:02:44.437Z,146.35
2019-03-22T19:05:13.690Z,144.35
2019-03-22T19:07:42.014Z,141.77
2019-03-22T19:10:14.689Z,138.22
2019-03-22T19:12:42.964Z,139.82
2019-03-22T19:15:12.382Z,141.80
2019-03-22T19:17:40.829Z,147.45
2019-03-22T19:20:14.137Z,142.32
2019-03-22T19:22:42.577Z,147.45
2019-03-22T19:25:10.930Z,161.07
2019-03-22T19:27:39.629Z,151.85
2019-03-22T19:30:13.424Z,148.50
2019-03-22T19:32:41.947Z,144.82
2019-03-22T19:35:11.109Z,145.07
2019-03-22T19:37:39.537Z,151.03
2019-03-22T19:40:12.696Z,152.17
2019-03-22T19:42:41.165Z,159.43
2019-03-22T19:45:11.161Z,154.32
2019-03-22T19:50:11.555Z,148.43
2019-03-22T19:52:39.995Z,157.00
2019-03-22T19:55:09.311Z,158.75
2019-03-22T19:57:37.928Z,163.28
2019-03-22T20:00:09.331Z,162.95
2019-03-22T20:02:37.641Z,167.77
2019-03-22T20:05:07.196Z,164.52
2019-03-22T20:07:35.639Z,162.18
2019-03-22T20:10:07.297Z,176.00
2019-03-22T20:12:35.814Z,172.62
2019-03-22T20:15:05.728Z,181.28
2019-03-22T20:17:34.218Z,180.15
2019-03-22T20:20:02.835Z,175.87
2019-03-22T20:22:32.179Z,171.80
2019-03-22T20:25:00.687Z,180.42
2019-03-22T20:27:29.186Z,171.77
2019-03-22T20:29:57.546Z,167.98
2019-03-22T20:32:26.108Z,184.90
2019-03-22T20:34:54.932Z,175.65
2019-03-22T20:37:23.355Z,170.45
2019-03-22T20:39:51.645Z,173.40
2019-03-22T20:42:20.090Z,167.28
2019-03-22T20:44:48.808Z,175.27
2019-03-22T20:47:17.228Z,190.62
2019-03-22T20:49:45.634Z,180.75
2019-03-22T20:52:14.151Z,190.45
2019-03-22T20:54:42.482Z,183.27
2019-03-22T20:57:11.334Z,189.60
2019-03-22T20:59:39.950Z,192.47
2019-03-22T21:02:09.360Z,193.02
2019-03-22T21:04:38.144Z,209.60
2019-03-22T21:07:06.769Z,207.15
2019-03-22T21:09:35.347Z,214.27
2019-03-22T21:12:04.034Z,214.65
2019-03-22T21:14:33.207Z,222.37
2019-03-22T21:17:10.506Z,230.83
2019-03-22T21:19:38.852Z,243.63
2019-03-22T21:22:07.455Z,251.67
2019-03-22T21:24:37.632Z,251.90
2019-03-22T21:27:15.231Z,238.22
2019-03-22T21:29:44.174Z,229.70
2019-03-22T21:34:35.255Z,234.80
2019-03-22T21:37:03.697Z,234.60
2019-03-22T21:39:32.446Z,250.97
2019-03-22T21:42:01.033Z,255.80
2019-03-22T21:44:29.735Z,271.32
2019-03-22T21:46:58.300Z,251.37
2019-03-22T21:49:26.644Z,284.23
2019-03-22T21:51:55.651Z,280.18
2019-03-22T21:54:24.728Z,235.63
2019-03-22T21:56:53.951Z,285.90
2019-03-22T21:59:22.810Z,308.80
2019-03-22T22:01:51.583Z,306.90
2019-03-22T22:04:20.142Z,277.02
2019-03-22T22:06:48.922Z,256.60
2019-03-22T22:09:17.754Z,215.15
2019-03-22T22:11:46.480Z,212.08
2019-03-22T22:14:14.917Z,239.48
2019-03-22T22:16:43.320Z,254.18
2019-03-22T22:19:12.004Z,248.07
2019-03-22T22:21:40.741Z,219.18
2019-03-22T22:24:09.427Z,212.20
2019-03-22T22:26:38.881Z,228.00
2019-03-22T22:29:07.213Z,255.60
2019-03-22T22:31:42.316Z,221.68
2019-03-22T22:34:11.212Z,251.75
2019-03-22T22:36:39.896Z,229.13
2019-03-22T22:39:08.934Z,348.90
2019-03-22T22:41:37.519Z,274.00
2019-03-22T22:44:05.975Z,221.77
2019-03-22T22:46:34.889Z,343.55
2019-03-22T22:49:03.543Z,464.95
2019-03-22T22:51:32.758Z,459.90
2019-03-22T22:54:01.659Z,402.45
2019-03-22T22:56:30.288Z,525.98
2019-03-22T22:58:59.321Z,507.85
2019-03-22T23:01:28.253Z,269.20
2019-03-22T23:03:57.686Z,321.68
2019-03-22T23:06:27.423Z,253.02
2019-03-22T23:08:56.546Z,388.80
2019-03-22T23:11:25.198Z,567.92
2019-03-22T23:13:54.439Z,537.90
2019-03-22T23:16:23.488Z,626.08
2019-03-22T23:18:52.546Z,587.12
2019-03-22T23:21:21.247Z,628.83
2019-03-22T23:23:52.068Z,748.40
2019-03-22T23:26:21.294Z,350.15
2019-03-22T23:28:52.330Z,1023.20
2019-03-22T23:31:21.667Z,1279.17
2019-03-22T23:33:51.440Z,851.22
2019-03-22T23:36:21.864Z,1256.10
2019-03-22T23:38:52.411Z,511.35
2019-03-22T23:41:21.825Z,317.75
2019-03-22T23:43:51.155Z,568.27
2019-03-22T23:46:21.446Z,553.73
2019-03-22T23:48:51.379Z,1418.13
2019-03-22T23:51:20.828Z,1995.40
2019-03-22T23:53:51.114Z,737.67
2019-03-22T23:56:20.472Z,331.87
2019-03-22T23:58:49.354Z,253.83
